sensor_id;sensor_type;location;lat;lon;timestamp;temperature;humidity
25616;DHT22;13482;48.234;13.006;2023-04-25T00:00:16;9.60;66.40
25616;DHT22;13482;48.234;13.006;2023-04-25T00:02:44;9.60;66.40
25616;DHT22;13482;48.234;13.006;2023-04-25T00:05:11;9.60;66.50
25616;DHT22;13482;48.234;13.006;2023-04-25T00:07:39;9.60;66.60
25616;DHT22;13482;48.234;13.006;2023-04-25T00:10:06;9.60;66.80
25616;DHT22;13482;48.234;13.006;2023-04-25T00:12:34;9.60;67.10
25616;DHT22;13482;48.234;13.006;2023-04-25T00:15:03;9.60;67.20
25616;DHT22;13482;48.234;13.006;2023-04-25T00:17:30;9.60;67.20
25616;DHT22;13482;48.234;13.006;2023-04-25T00:19:58;9.60;67.40
25616;DHT22;13482;48.234;13.006;2023-04-25T00:22:25;9.60;67.50
25616;DHT22;13482;48.234;13.006;2023-04-25T00:24:52;9.60;67.50
25616;DHT22;13482;48.234;13.006;2023-04-25T00:27:20;9.60;67.60
25616;DHT22;13482;48.234;13.006;2023-04-25T00:29:47;9.60;67.60
25616;DHT22;13482;48.234;13.006;2023-04-25T00:32:14;9.70;67.60
25616;DHT22;13482;48.234;13.006;2023-04-25T00:34:41;9.70;67.50
25616;DHT22;13482;48.234;13.006;2023-04-25T00:37:08;9.70;67.40
25616;DHT22;13482;48.234;13.006;2023-04-25T00:39:35;9.70;67.40
25616;DHT22;13482;48.234;13.006;2023-04-25T00:42:02;9.70;67.50
25616;DHT22;13482;48.234;13.006;2023-04-25T00:44:31;9.70;67.40
25616;DHT22;13482;48.234;13.006;2023-04-25T00:47:02;9.80;67.40
25616;DHT22;13482;48.234;13.006;2023-04-25T00:49:30;9.70;67.30
25616;DHT22;13482;48.234;13.006;2023-04-25T00:51:57;9.70;67.40
25616;DHT22;13482;48.234;13.006;2023-04-25T00:54:24;9.70;67.60
25616;DHT22;13482;48.234;13.006;2023-04-25T00:56:52;9.70;67.70
25616;DHT22;13482;48.234;13.006;2023-04-25T00:59:19;9.70;67.70
25616;DHT22;13482;48.234;13.006;2023-04-25T01:01:47;9.70;67.70
25616;DHT22;13482;48.234;13.006;2023-04-25T01:04:15;9.80;67.70
25616;DHT22;13482;48.234;13.006;2023-04-25T01:06:42;9.80;67.70
25616;DHT22;13482;48.234;13.006;2023-04-25T01:09:09;9.80;67.70
25616;DHT22;13482;48.234;13.006;2023-04-25T01:11:37;9.80;67.80
25616;DHT22;13482;48.234;13.006;2023-04-25T01:14:04;9.80;67.70
25616;DHT22;13482;48.234;13.006;2023-04-25T01:16:32;9.70;67.70
25616;DHT22;13482;48.234;13.006;2023-04-25T01:19:00;9.70;67.70
25616;DHT22;13482;48.234;13.006;2023-04-25T01:21:27;9.70;67.70
25616;DHT22;13482;48.234;13.006;2023-04-25T01:23:56;9.70;67.70
25616;DHT22;13482;48.234;13.006;2023-04-25T01:26:24;9.70;67.70
25616;DHT22;13482;48.234;13.006;2023-04-25T01:28:51;9.70;67.70
25616;DHT22;13482;48.234;13.006;2023-04-25T01:31:20;9.70;67.80
25616;DHT22;13482;48.234;13.006;2023-04-25T01:33:47;9.70;67.90
25616;DHT22;13482;48.234;13.006;2023-04-25T01:36:15;9.60;67.90
25616;DHT22;13482;48.234;13.006;2023-04-25T01:38:42;9.60;67.90
25616;DHT22;13482;48.234;13.006;2023-04-25T01:41:10;9.60;67.90
25616;DHT22;13482;48.234;13.006;2023-04-25T01:43:38;9.60;67.90
25616;DHT22;13482;48.234;13.006;2023-04-25T01:46:05;9.60;67.80
25616;DHT22;13482;48.234;13.006;2023-04-25T01:48:32;9.60;67.90
25616;DHT22;13482;48.234;13.006;2023-04-25T01:51:00;9.60;68.10
25616;DHT22;13482;48.234;13.006;2023-04-25T01:53:27;9.60;68.30
25616;DHT22;13482;48.234;13.006;2023-04-25T01:55:54;9.60;68.40
25616;DHT22;13482;48.234;13.006;2023-04-25T01:58:21;9.60;68.50
25616;DHT22;13482;48.234;13.006;2023-04-25T02:00:48;9.60;68.50
25616;DHT22;13482;48.234;13.006;2023-04-25T02:03:15;9.60;68.60
25616;DHT22;13482;48.234;13.006;2023-04-25T02:05:42;9.60;68.60
25616;DHT22;13482;48.234;13.006;2023-04-25T02:08:10;9.60;68.70
25616;DHT22;13482;48.234;13.006;2023-04-25T02:10:37;9.70;68.70
25616;DHT22;13482;48.234;13.006;2023-04-25T02:13:04;9.70;68.80
25616;DHT22;13482;48.234;13.006;2023-04-25T02:15:32;9.70;68.90
25616;DHT22;13482;48.234;13.006;2023-04-25T02:17:59;9.70;68.80
25616;DHT22;13482;48.234;13.006;2023-04-25T02:20:30;9.70;68.80
25616;DHT22;13482;48.234;13.006;2023-04-25T02:22:58;9.70;69.00
25616;DHT22;13482;48.234;13.006;2023-04-25T02:25:25;9.70;68.90
25616;DHT22;13482;48.234;13.006;2023-04-25T02:27:52;9.60;69.00
25616;DHT22;13482;48.234;13.006;2023-04-25T02:30:20;9.60;69.10
25616;DHT22;13482;48.234;13.006;2023-04-25T02:32:47;9.60;69.10
25616;DHT22;13482;48.234;13.006;2023-04-25T02:35:14;9.60;69.10
25616;DHT22;13482;48.234;13.006;2023-04-25T02:37:41;9.60;69.10
25616;DHT22;13482;48.234;13.006;2023-04-25T02:40:09;9.60;69.10
25616;DHT22;13482;48.234;13.006;2023-04-25T02:42:36;9.60;69.00
25616;DHT22;13482;48.234;13.006;2023-04-25T02:45:04;9.60;69.00
25616;DHT22;13482;48.234;13.006;2023-04-25T02:47:31;9.60;69.10
25616;DHT22;13482;48.234;13.006;2023-04-25T02:49:59;9.60;69.10
25616;DHT22;13482;48.234;13.006;2023-04-25T02:52:26;9.60;69.20
25616;DHT22;13482;48.234;13.006;2023-04-25T02:54:53;9.60;69.10
25616;DHT22;13482;48.234;13.006;2023-04-25T02:57:20;9.60;69.20
25616;DHT22;13482;48.234;13.006;2023-04-25T02:59:47;9.50;69.20
25616;DHT22;13482;48.234;13.006;2023-04-25T03:02:14;9.50;69.20
25616;DHT22;13482;48.234;13.006;2023-04-25T03:04:42;9.50;69.20
25616;DHT22;13482;48.234;13.006;2023-04-25T03:07:10;9.50;69.20
25616;DHT22;13482;48.234;13.006;2023-04-25T03:09:37;9.50;69.20
25616;DHT22;13482;48.234;13.006;2023-04-25T03:12:05;9.40;69.20
25616;DHT22;13482;48.234;13.006;2023-04-25T03:14:33;9.40;69.20
25616;DHT22;13482;48.234;13.006;2023-04-25T03:17:00;9.40;69.10
25616;DHT22;13482;48.234;13.006;2023-04-25T03:19:28;9.40;69.10
25616;DHT22;13482;48.234;13.006;2023-04-25T03:21:55;9.30;69.20
25616;DHT22;13482;48.234;13.006;2023-04-25T03:24:22;9.30;69.10
25616;DHT22;13482;48.234;13.006;2023-04-25T03:26:49;9.30;69.20
25616;DHT22;13482;48.234;13.006;2023-04-25T03:29:16;9.30;69.20
25616;DHT22;13482;48.234;13.006;2023-04-25T03:31:43;9.30;69.20
25616;DHT22;13482;48.234;13.006;2023-04-25T03:34:11;9.30;69.20
25616;DHT22;13482;48.234;13.006;2023-04-25T03:36:38;9.30;69.40
25616;DHT22;13482;48.234;13.006;2023-04-25T03:39:07;9.20;69.50
25616;DHT22;13482;48.234;13.006;2023-04-25T03:41:34;9.20;69.50
25616;DHT22;13482;48.234;13.006;2023-04-25T03:44:01;9.20;69.50
25616;DHT22;13482;48.234;13.006;2023-04-25T03:46:28;9.20;69.50
25616;DHT22;13482;48.234;13.006;2023-04-25T03:48:55;9.20;69.50
25616;DHT22;13482;48.234;13.006;2023-04-25T03:51:22;9.20;69.50
25616;DHT22;13482;48.234;13.006;2023-04-25T03:53:50;9.10;69.50
25616;DHT22;13482;48.234;13.006;2023-04-25T03:56:17;9.10;69.40
25616;DHT22;13482;48.234;13.006;2023-04-25T03:58:44;9.10;69.40
25616;DHT22;13482;48.234;13.006;2023-04-25T04:01:11;9.00;69.40
25616;DHT22;13482;48.234;13.006;2023-04-25T04:03:38;9.00;69.50
25616;DHT22;13482;48.234;13.006;2023-04-25T04:06:07;9.00;69.50
25616;DHT22;13482;48.234;13.006;2023-04-25T04:08:35;8.90;69.50
25616;DHT22;13482;48.234;13.006;2023-04-25T04:11:02;8.90;69.60
25616;DHT22;13482;48.234;13.006;2023-04-25T04:13:29;8.80;69.60
25616;DHT22;13482;48.234;13.006;2023-04-25T04:15:57;8.80;69.60
25616;DHT22;13482;48.234;13.006;2023-04-25T04:18:24;8.80;69.60
25616;DHT22;13482;48.234;13.006;2023-04-25T04:20:52;8.80;69.50
25616;DHT22;13482;48.234;13.006;2023-04-25T04:23:19;8.80;69.50
25616;DHT22;13482;48.234;13.006;2023-04-25T04:25:47;8.80;69.60
25616;DHT22;13482;48.234;13.006;2023-04-25T04:28:14;8.70;69.60
25616;DHT22;13482;48.234;13.006;2023-04-25T04:30:42;8.70;69.70
25616;DHT22;13482;48.234;13.006;2023-04-25T04:33:13;8.70;69.80
25616;DHT22;13482;48.234;13.006;2023-04-25T04:35:41;8.70;69.90
25616;DHT22;13482;48.234;13.006;2023-04-25T04:38:09;8.70;70.10
25616;DHT22;13482;48.234;13.006;2023-04-25T04:40:38;8.70;70.30
25616;DHT22;13482;48.234;13.006;2023-04-25T04:43:05;8.80;70.50
25616;DHT22;13482;48.234;13.006;2023-04-25T04:45:32;8.80;70.70
25616;DHT22;13482;48.234;13.006;2023-04-25T04:48:00;8.90;70.80
25616;DHT22;13482;48.234;13.006;2023-04-25T04:50:27;9.00;71.10
25616;DHT22;13482;48.234;13.006;2023-04-25T04:52:55;9.10;71.30
25616;DHT22;13482;48.234;13.006;2023-04-25T04:55:22;9.20;71.50
25616;DHT22;13482;48.234;13.006;2023-04-25T04:57:49;9.30;71.60
25616;DHT22;13482;48.234;13.006;2023-04-25T05:00:16;9.40;71.60
25616;DHT22;13482;48.234;13.006;2023-04-25T05:02:44;9.50;71.60
25616;DHT22;13482;48.234;13.006;2023-04-25T05:05:12;9.60;71.50
25616;DHT22;13482;48.234;13.006;2023-04-25T05:07:39;9.70;71.30
25616;DHT22;13482;48.234;13.006;2023-04-25T05:10:07;9.80;71.30
25616;DHT22;13482;48.234;13.006;2023-04-25T05:12:35;9.90;71.40
25616;DHT22;13482;48.234;13.006;2023-04-25T05:15:03;9.90;71.30
25616;DHT22;13482;48.234;13.006;2023-04-25T05:17:30;10.00;71.20
25616;DHT22;13482;48.234;13.006;2023-04-25T05:19:57;10.00;71.20
25616;DHT22;13482;48.234;13.006;2023-04-25T05:22:24;10.10;71.10
25616;DHT22;13482;48.234;13.006;2023-04-25T05:24:51;10.10;71.10
25616;DHT22;13482;48.234;13.006;2023-04-25T05:27:21;10.20;71.10
25616;DHT22;13482;48.234;13.006;2023-04-25T05:29:49;10.20;70.90
25616;DHT22;13482;48.234;13.006;2023-04-25T05:32:16;10.30;70.90
25616;DHT22;13482;48.234;13.006;2023-04-25T05:34:43;10.30;70.90
25616;DHT22;13482;48.234;13.006;2023-04-25T05:37:10;10.40;70.90
25616;DHT22;13482;48.234;13.006;2023-04-25T05:39:37;10.40;70.90
25616;DHT22;13482;48.234;13.006;2023-04-25T05:42:04;10.50;70.90
25616;DHT22;13482;48.234;13.006;2023-04-25T05:44:31;10.50;70.80
25616;DHT22;13482;48.234;13.006;2023-04-25T05:46:59;10.50;70.90
25616;DHT22;13482;48.234;13.006;2023-04-25T05:49:26;10.60;70.90
25616;DHT22;13482;48.234;13.006;2023-04-25T05:51:53;10.60;70.90
25616;DHT22;13482;48.234;13.006;2023-04-25T05:54:20;10.70;70.90
25616;DHT22;13482;48.234;13.006;2023-04-25T05:56:47;10.70;70.90
25616;DHT22;13482;48.234;13.006;2023-04-25T05:59:14;10.80;70.90
25616;DHT22;13482;48.234;13.006;2023-04-25T06:01:41;10.80;71.10
25616;DHT22;13482;48.234;13.006;2023-04-25T06:04:09;10.90;71.10
25616;DHT22;13482;48.234;13.006;2023-04-25T06:06:36;11.00;71.10
25616;DHT22;13482;48.234;13.006;2023-04-25T06:09:03;11.00;71.00
25616;DHT22;13482;48.234;13.006;2023-04-25T06:11:30;11.10;70.90
25616;DHT22;13482;48.234;13.006;2023-04-25T06:13:57;11.20;71.10
25616;DHT22;13482;48.234;13.006;2023-04-25T06:16:24;11.30;71.40
25616;DHT22;13482;48.234;13.006;2023-04-25T06:18:52;11.40;71.40
25616;DHT22;13482;48.234;13.006;2023-04-25T06:21:20;11.50;71.30
25616;DHT22;13482;48.234;13.006;2023-04-25T06:23:47;11.60;71.10
25616;DHT22;13482;48.234;13.006;2023-04-25T06:26:15;11.70;70.80
25616;DHT22;13482;48.234;13.006;2023-04-25T06:28:42;11.80;70.70
25616;DHT22;13482;48.234;13.006;2023-04-25T06:31:09;11.90;70.60
25616;DHT22;13482;48.234;13.006;2023-04-25T06:33:36;11.90;70.50
25616;DHT22;13482;48.234;13.006;2023-04-25T06:36:03;12.00;70.30
25616;DHT22;13482;48.234;13.006;2023-04-25T06:38:31;12.00;70.20
25616;DHT22;13482;48.234;13.006;2023-04-25T06:40:58;12.10;70.20
25616;DHT22;13482;48.234;13.006;2023-04-25T06:43:25;12.10;70.10
25616;DHT22;13482;48.234;13.006;2023-04-25T06:45:52;12.20;70.10
25616;DHT22;13482;48.234;13.006;2023-04-25T06:48:19;12.20;70.10
25616;DHT22;13482;48.234;13.006;2023-04-25T06:50:46;12.30;70.10
25616;DHT22;13482;48.234;13.006;2023-04-25T06:53:14;12.40;70.10
25616;DHT22;13482;48.234;13.006;2023-04-25T06:55:41;12.50;70.10
25616;DHT22;13482;48.234;13.006;2023-04-25T06:58:08;12.60;70.10
25616;DHT22;13482;48.234;13.006;2023-04-25T07:00:35;12.70;69.90
25616;DHT22;13482;48.234;13.006;2023-04-25T07:03:02;12.80;69.70
25616;DHT22;13482;48.234;13.006;2023-04-25T07:05:30;12.90;69.70
25616;DHT22;13482;48.234;13.006;2023-04-25T07:07:57;13.00;69.80
25616;DHT22;13482;48.234;13.006;2023-04-25T07:10:24;13.10;69.80
25616;DHT22;13482;48.234;13.006;2023-04-25T07:12:51;13.30;69.60
25616;DHT22;13482;48.234;13.006;2023-04-25T07:15:19;13.40;69.30
25616;DHT22;13482;48.234;13.006;2023-04-25T07:17:46;13.50;69.00
25616;DHT22;13482;48.234;13.006;2023-04-25T07:20:13;13.60;68.70
25616;DHT22;13482;48.234;13.006;2023-04-25T07:22:40;13.70;68.30
25616;DHT22;13482;48.234;13.006;2023-04-25T07:25:08;13.70;68.10
25616;DHT22;13482;48.234;13.006;2023-04-25T07:27:35;13.70;67.90
25616;DHT22;13482;48.234;13.006;2023-04-25T07:30:03;13.80;67.80
25616;DHT22;13482;48.234;13.006;2023-04-25T07:32:30;13.80;67.40
25616;DHT22;13482;48.234;13.006;2023-04-25T07:34:58;13.80;67.30
25616;DHT22;13482;48.234;13.006;2023-04-25T07:37:25;13.80;67.50
25616;DHT22;13482;48.234;13.006;2023-04-25T07:39:52;13.80;67.70
25616;DHT22;13482;48.234;13.006;2023-04-25T07:42:20;13.90;67.40
25616;DHT22;13482;48.234;13.006;2023-04-25T07:44:47;13.90;67.30
25616;DHT22;13482;48.234;13.006;2023-04-25T07:47:14;13.90;67.40
25616;DHT22;13482;48.234;13.006;2023-04-25T07:49:42;13.90;67.50
25616;DHT22;13482;48.234;13.006;2023-04-25T07:52:09;13.90;67.50
25616;DHT22;13482;48.234;13.006;2023-04-25T07:54:36;13.90;67.10
25616;DHT22;13482;48.234;13.006;2023-04-25T07:57:03;14.00;67.00
25616;DHT22;13482;48.234;13.006;2023-04-25T07:59:33;13.90;67.00
25616;DHT22;13482;48.234;13.006;2023-04-25T08:02:00;13.90;67.20
25616;DHT22;13482;48.234;13.006;2023-04-25T08:04:28;14.00;67.20
25616;DHT22;13482;48.234;13.006;2023-04-25T08:06:55;14.00;67.30
25616;DHT22;13482;48.234;13.006;2023-04-25T08:09:22;14.00;67.20
25616;DHT22;13482;48.234;13.006;2023-04-25T08:11:50;14.00;67.20
25616;DHT22;13482;48.234;13.006;2023-04-25T08:14:17;14.00;67.20
25616;DHT22;13482;48.234;13.006;2023-04-25T08:16:44;14.00;67.00
25616;DHT22;13482;48.234;13.006;2023-04-25T08:19:11;13.90;67.10
25616;DHT22;13482;48.234;13.006;2023-04-25T08:21:38;13.90;67.30
25616;DHT22;13482;48.234;13.006;2023-04-25T08:24:06;13.90;67.40
25616;DHT22;13482;48.234;13.006;2023-04-25T08:26:33;14.00;67.10
25616;DHT22;13482;48.234;13.006;2023-04-25T08:29:01;14.00;67.00
25616;DHT22;13482;48.234;13.006;2023-04-25T08:31:28;14.00;67.10
25616;DHT22;13482;48.234;13.006;2023-04-25T08:33:55;14.00;67.20
25616;DHT22;13482;48.234;13.006;2023-04-25T08:36:22;14.10;67.00
25616;DHT22;13482;48.234;13.006;2023-04-25T08:38:57;14.20;66.70
25616;DHT22;13482;48.234;13.006;2023-04-25T08:41:26;14.20;67.40
25616;DHT22;13482;48.234;13.006;2023-04-25T08:43:53;14.40;67.50
25616;DHT22;13482;48.234;13.006;2023-04-25T08:46:23;14.60;67.20
25616;DHT22;13482;48.234;13.006;2023-04-25T08:48:51;14.80;66.80
25616;DHT22;13482;48.234;13.006;2023-04-25T08:51:23;15.00;66.50
25616;DHT22;13482;48.234;13.006;2023-04-25T08:53:55;15.20;65.90
25616;DHT22;13482;48.234;13.006;2023-04-25T08:56:32;15.30;65.70
25616;DHT22;13482;48.234;13.006;2023-04-25T08:59:02;15.40;64.40
25616;DHT22;13482;48.234;13.006;2023-04-25T09:01:29;15.50;63.50
25616;DHT22;13482;48.234;13.006;2023-04-25T09:03:57;15.40;63.40
25616;DHT22;13482;48.234;13.006;2023-04-25T09:06:24;15.40;63.60
25616;DHT22;13482;48.234;13.006;2023-04-25T09:08:52;15.30;63.70
25616;DHT22;13482;48.234;13.006;2023-04-25T09:11:20;15.20;64.10
25616;DHT22;13482;48.234;13.006;2023-04-25T09:13:49;15.20;63.70
25616;DHT22;13482;48.234;13.006;2023-04-25T09:16:16;15.20;64.10
25616;DHT22;13482;48.234;13.006;2023-04-25T09:18:46;15.20;64.80
25616;DHT22;13482;48.234;13.006;2023-04-25T09:21:14;15.30;64.50
25616;DHT22;13482;48.234;13.006;2023-04-25T09:23:48;15.40;63.80
25616;DHT22;13482;48.234;13.006;2023-04-25T09:26:17;15.50;63.50
25616;DHT22;13482;48.234;13.006;2023-04-25T09:28:46;15.60;63.60
25616;DHT22;13482;48.234;13.006;2023-04-25T09:31:24;15.60;63.70
25616;DHT22;13482;48.234;13.006;2023-04-25T09:33:59;15.70;63.00
25616;DHT22;13482;48.234;13.006;2023-04-25T09:36:30;15.70;62.90
25616;DHT22;13482;48.234;13.006;2023-04-25T09:38:59;15.70;63.00
25616;DHT22;13482;48.234;13.006;2023-04-25T09:41:27;15.70;63.70
25616;DHT22;13482;48.234;13.006;2023-04-25T09:43:57;15.80;64.00
25616;DHT22;13482;48.234;13.006;2023-04-25T09:46:34;15.90;64.10
25616;DHT22;13482;48.234;13.006;2023-04-25T09:49:08;16.10;64.40
25616;DHT22;13482;48.234;13.006;2023-04-25T09:51:35;16.20;63.90
25616;DHT22;13482;48.234;13.006;2023-04-25T09:54:03;16.40;64.10
25616;DHT22;13482;48.234;13.006;2023-04-25T09:56:35;16.60;63.80
25616;DHT22;13482;48.234;13.006;2023-04-25T09:59:05;16.70;63.30
25616;DHT22;13482;48.234;13.006;2023-04-25T10:01:33;16.90;63.50
25616;DHT22;13482;48.234;13.006;2023-04-25T10:04:02;17.00;63.20
25616;DHT22;13482;48.234;13.006;2023-04-25T10:06:33;17.10;62.50
25616;DHT22;13482;48.234;13.006;2023-04-25T10:09:01;17.20;61.90
25616;DHT22;13482;48.234;13.006;2023-04-25T10:11:31;17.20;61.80
25616;DHT22;13482;48.234;13.006;2023-04-25T10:14:00;17.20;61.10
25616;DHT22;13482;48.234;13.006;2023-04-25T10:16:28;17.20;60.70
25616;DHT22;13482;48.234;13.006;2023-04-25T10:18:55;17.20;61.00
25616;DHT22;13482;48.234;13.006;2023-04-25T10:21:24;17.20;61.40
25616;DHT22;13482;48.234;13.006;2023-04-25T10:23:54;17.20;61.50
25616;DHT22;13482;48.234;13.006;2023-04-25T10:26:22;17.30;61.60
25616;DHT22;13482;48.234;13.006;2023-04-25T10:29:01;17.40;61.60
25616;DHT22;13482;48.234;13.006;2023-04-25T10:31:30;17.40;60.40
25616;DHT22;13482;48.234;13.006;2023-04-25T10:33:59;17.50;61.00
25616;DHT22;13482;48.234;13.006;2023-04-25T10:36:31;17.50;61.00
25616;DHT22;13482;48.234;13.006;2023-04-25T10:39:06;17.60;61.20
25616;DHT22;13482;48.234;13.006;2023-04-25T10:41:53;17.70;61.40
25616;DHT22;13482;48.234;13.006;2023-04-25T10:44:22;17.80;59.90
25616;DHT22;13482;48.234;13.006;2023-04-25T10:46:58;17.80;60.90
25616;DHT22;13482;48.234;13.006;2023-04-25T10:49:36;18.00;60.50
25616;DHT22;13482;48.234;13.006;2023-04-25T10:52:17;18.00;59.00
25616;DHT22;13482;48.234;13.006;2023-04-25T10:54:55;18.10;59.20
25616;DHT22;13482;48.234;13.006;2023-04-25T11:00:23;18.20;58.30
25616;DHT22;13482;48.234;13.006;2023-04-25T11:03:16;18.20;56.90
25616;DHT22;13482;48.234;13.006;2023-04-25T11:05:45;18.30;58.60
25616;DHT22;13482;48.234;13.006;2023-04-25T11:08:50;18.40;58.80
25616;DHT22;13482;48.234;13.006;2023-04-25T11:11:18;18.50;58.10
25616;DHT22;13482;48.234;13.006;2023-04-25T11:13:49;18.50;58.40
25616;DHT22;13482;48.234;13.006;2023-04-25T11:16:17;18.60;58.10
25616;DHT22;13482;48.234;13.006;2023-04-25T11:18:56;18.70;57.90
25616;DHT22;13482;48.234;13.006;2023-04-25T11:21:25;18.80;57.60
25616;DHT22;13482;48.234;13.006;2023-04-25T11:23:56;18.90;56.80
25616;DHT22;13482;48.234;13.006;2023-04-25T11:26:24;18.70;54.00
25616;DHT22;13482;48.234;13.006;2023-04-25T11:28:57;18.40;53.60
25616;DHT22;13482;48.234;13.006;2023-04-25T11:31:29;17.90;53.90
25616;DHT22;13482;48.234;13.006;2023-04-25T11:33:57;17.30;54.70
25616;DHT22;13482;48.234;13.006;2023-04-25T11:36:25;16.60;56.10
25616;DHT22;13482;48.234;13.006;2023-04-25T11:38:53;15.70;57.50
25616;DHT22;13482;48.234;13.006;2023-04-25T11:41:20;15.00;59.20
25616;DHT22;13482;48.234;13.006;2023-04-25T11:43:49;14.40;60.60
25616;DHT22;13482;48.234;13.006;2023-04-25T11:46:18;13.90;61.50
25616;DHT22;13482;48.234;13.006;2023-04-25T11:48:46;13.50;62.50
25616;DHT22;13482;48.234;13.006;2023-04-25T11:51:14;13.20;62.70
25616;DHT22;13482;48.234;13.006;2023-04-25T11:53:44;12.90;63.30
25616;DHT22;13482;48.234;13.006;2023-04-25T11:56:11;12.80;64.00
25616;DHT22;13482;48.234;13.006;2023-04-25T11:58:58;12.70;64.20
25616;DHT22;13482;48.234;13.006;2023-04-25T12:01:33;12.70;65.10
25616;DHT22;13482;48.234;13.006;2023-04-25T12:04:19;12.70;65.10
25616;DHT22;13482;48.234;13.006;2023-04-25T12:06:53;12.80;65.80
25616;DHT22;13482;48.234;13.006;2023-04-25T12:09:28;12.90;65.10
25616;DHT22;13482;48.234;13.006;2023-04-25T12:11:58;13.00;65.20
25616;DHT22;13482;48.234;13.006;2023-04-25T12:14:32;13.10;65.10
25616;DHT22;13482;48.234;13.006;2023-04-25T12:17:02;13.30;65.40
25616;DHT22;13482;48.234;13.006;2023-04-25T12:19:35;13.40;65.40
25616;DHT22;13482;48.234;13.006;2023-04-25T12:22:10;13.60;65.50
25616;DHT22;13482;48.234;13.006;2023-04-25T12:24:46;13.80;65.10
25616;DHT22;13482;48.234;13.006;2023-04-25T12:27:15;13.90;65.00
25616;DHT22;13482;48.234;13.006;2023-04-25T12:29:51;14.10;65.40
25616;DHT22;13482;48.234;13.006;2023-04-25T12:32:19;14.20;65.30
25616;DHT22;13482;48.234;13.006;2023-04-25T12:34:46;14.40;65.30
25616;DHT22;13482;48.234;13.006;2023-04-25T12:37:14;14.60;64.90
25616;DHT22;13482;48.234;13.006;2023-04-25T12:39:41;14.70;64.60
25616;DHT22;13482;48.234;13.006;2023-04-25T12:42:09;14.80;64.50
25616;DHT22;13482;48.234;13.006;2023-04-25T12:44:39;14.90;64.60
25616;DHT22;13482;48.234;13.006;2023-04-25T12:47:07;15.00;64.40
25616;DHT22;13482;48.234;13.006;2023-04-25T12:49:34;15.10;64.60
25616;DHT22;13482;48.234;13.006;2023-04-25T12:52:02;15.10;64.50
25616;DHT22;13482;48.234;13.006;2023-04-25T12:54:29;15.20;64.40
25616;DHT22;13482;48.234;13.006;2023-04-25T12:56:56;15.30;64.40
25616;DHT22;13482;48.234;13.006;2023-04-25T12:59:24;15.30;64.20
25616;DHT22;13482;48.234;13.006;2023-04-25T13:01:51;15.40;64.00
25616;DHT22;13482;48.234;13.006;2023-04-25T13:04:18;15.40;64.00
25616;DHT22;13482;48.234;13.006;2023-04-25T13:06:48;15.50;63.50
25616;DHT22;13482;48.234;13.006;2023-04-25T13:09:15;15.40;63.10
25616;DHT22;13482;48.234;13.006;2023-04-25T13:11:42;15.30;63.00
25616;DHT22;13482;48.234;13.006;2023-04-25T13:14:09;15.10;62.80
25616;DHT22;13482;48.234;13.006;2023-04-25T13:16:37;14.70;61.80
25616;DHT22;13482;48.234;13.006;2023-04-25T13:19:04;14.40;62.20
25616;DHT22;13482;48.234;13.006;2023-04-25T13:21:32;14.10;62.90
25616;DHT22;13482;48.234;13.006;2023-04-25T13:23:59;13.90;63.40
25616;DHT22;13482;48.234;13.006;2023-04-25T13:26:26;13.80;63.80
25616;DHT22;13482;48.234;13.006;2023-04-25T13:28:53;13.70;64.20
25616;DHT22;13482;48.234;13.006;2023-04-25T13:31:20;13.70;64.60
25616;DHT22;13482;48.234;13.006;2023-04-25T13:33:48;13.60;64.80
25616;DHT22;13482;48.234;13.006;2023-04-25T13:36:15;13.60;65.00
25616;DHT22;13482;48.234;13.006;2023-04-25T13:38:43;13.60;65.10
25616;DHT22;13482;48.234;13.006;2023-04-25T13:41:11;13.60;65.30
25616;DHT22;13482;48.234;13.006;2023-04-25T13:43:45;13.50;65.60
25616;DHT22;13482;48.234;13.006;2023-04-25T13:46:15;13.60;65.60
25616;DHT22;13482;48.234;13.006;2023-04-25T13:49:03;13.60;66.20
25616;DHT22;13482;48.234;13.006;2023-04-25T13:51:38;13.50;66.00
25616;DHT22;13482;48.234;13.006;2023-04-25T13:54:06;13.50;65.80
25616;DHT22;13482;48.234;13.006;2023-04-25T13:56:33;13.40;65.70
25616;DHT22;13482;48.234;13.006;2023-04-25T13:59:00;13.30;65.90
25616;DHT22;13482;48.234;13.006;2023-04-25T14:01:27;13.20;65.90
25616;DHT22;13482;48.234;13.006;2023-04-25T14:03:54;13.00;66.20
25616;DHT22;13482;48.234;13.006;2023-04-25T14:06:22;12.90;66.40
25616;DHT22;13482;48.234;13.006;2023-04-25T14:08:53;12.70;66.50
25616;DHT22;13482;48.234;13.006;2023-04-25T14:11:20;12.60;66.90
25616;DHT22;13482;48.234;13.006;2023-04-25T14:13:47;12.60;67.00
25616;DHT22;13482;48.234;13.006;2023-04-25T14:16:16;12.50;67.50
25616;DHT22;13482;48.234;13.006;2023-04-25T14:18:43;12.40;67.80
25616;DHT22;13482;48.234;13.006;2023-04-25T14:21:11;12.30;68.10
25616;DHT22;13482;48.234;13.006;2023-04-25T14:23:38;12.30;68.20
25616;DHT22;13482;48.234;13.006;2023-04-25T14:26:05;12.30;68.30
25616;DHT22;13482;48.234;13.006;2023-04-25T14:28:33;12.30;68.50
25616;DHT22;13482;48.234;13.006;2023-04-25T14:31:00;12.30;69.10
25616;DHT22;13482;48.234;13.006;2023-04-25T14:33:27;12.30;68.80
25616;DHT22;13482;48.234;13.006;2023-04-25T14:35:54;12.30;69.00
25616;DHT22;13482;48.234;13.006;2023-04-25T14:38:22;12.30;68.90
25616;DHT22;13482;48.234;13.006;2023-04-25T14:40:51;12.40;69.30
25616;DHT22;13482;48.234;13.006;2023-04-25T14:43:20;12.40;68.90
25616;DHT22;13482;48.234;13.006;2023-04-25T14:45:47;12.40;68.90
25616;DHT22;13482;48.234;13.006;2023-04-25T14:48:15;12.50;68.70
25616;DHT22;13482;48.234;13.006;2023-04-25T14:50:45;12.50;68.70
25616;DHT22;13482;48.234;13.006;2023-04-25T14:53:13;12.50;68.80
25616;DHT22;13482;48.234;13.006;2023-04-25T14:55:40;12.50;68.80
25616;DHT22;13482;48.234;13.006;2023-04-25T14:58:07;12.50;68.70
25616;DHT22;13482;48.234;13.006;2023-04-25T15:00:35;12.50;68.90
25616;DHT22;13482;48.234;13.006;2023-04-25T15:03:03;12.50;69.00
25616;DHT22;13482;48.234;13.006;2023-04-25T15:05:31;12.60;69.10
25616;DHT22;13482;48.234;13.006;2023-04-25T15:07:58;12.60;69.00
25616;DHT22;13482;48.234;13.006;2023-04-25T15:10:25;12.70;69.00
25616;DHT22;13482;48.234;13.006;2023-04-25T15:12:52;12.70;69.10
25616;DHT22;13482;48.234;13.006;2023-04-25T15:15:20;12.80;69.20
25616;DHT22;13482;48.234;13.006;2023-04-25T15:17:53;12.80;68.90
25616;DHT22;13482;48.234;13.006;2023-04-25T15:20:25;12.90;68.90
25616;DHT22;13482;48.234;13.006;2023-04-25T15:22:53;12.90;68.90
25616;DHT22;13482;48.234;13.006;2023-04-25T15:25:21;13.00;68.70
25616;DHT22;13482;48.234;13.006;2023-04-25T15:27:48;13.00;69.00
25616;DHT22;13482;48.234;13.006;2023-04-25T15:30:16;13.00;68.80